CheckWX is a tool to help pilots better visualize weather data.  It is not intended as a substitute for an official pre-flight weather briefing.

08:17:07 UTC

KBHB TAF
Hancock County-Bar Harbor Airport
Bar Harbor, Maine, USA
KBHB 241120Z 2412/2512 VRB02KT P6SM SKC FM241300 14004KT P6SM FEW250 FM241700 17009KT P6SM FEW120 SCT250 FM250300 17006KT P6SM FEW040 SCT120 FM250900 00000KT P6SM BKN028 FM251030 00000KT P6SM BKN012

May-24@
12:00 UTC

May-24 @ 12:00 UTC

May-24@
13:00 UTC

May-24 @ 13:00 UTC

TAF KBHB 241120Z 2412/2512 VRB02KT P6SM SKC

Expired

Wind
  • Variable at 2 KTS
Cloud Levels
  • Clear skies

May-24@
13:00 UTC

May-24 @ 13:00 UTC

May-24@
17:00 UTC

May-24 @ 17:00 UTC

FM241300 14004KT P6SM FEW250

Expired

Wind
  • 140° at 4 KTS
Cloud Levels
  • Few at 25,000' AGL

May-24@
17:00 UTC

May-24 @ 17:00 UTC

May-25@
03:00 UTC

May-25 @ 03:00 UTC

FM241700 17009KT P6SM FEW120 SCT250

Expired

Wind
  • 170° at 9 KTS
Cloud Levels
  • Few at 12,000' AGL
  • Scattered at 25,000' AGL

May-25@
03:00 UTC

May-25 @ 03:00 UTC

May-25@
09:00 UTC

May-25 @ 09:00 UTC

FM250300 17006KT P6SM FEW040 SCT120

From

From Standard forecast or significant change

Wind
  • 170° at 6 KTS
Cloud Levels
  • Few at 4,000' AGL
  • Scattered at 12,000' AGL

May-25@
09:00 UTC

May-25 @ 09:00 UTC

May-25@
10:30 UTC

May-25 @ 10:30 UTC

FM250900 00000KT P6SM BKN028

From

From Standard forecast or significant change

Cloud Levels
  • Broken at 2,800' AGL

May-25@
10:30 UTC

May-25 @ 10:30 UTC

May-25@
12:00 UTC

May-25 @ 12:00 UTC

FM251030 00000KT P6SM BKN012

From

From Standard forecast or significant change

Cloud Levels
  • Broken at 1,200' AGL